createdAt,value
2023-03-19T00:00:33.955Z,11.80
2023-03-19T00:03:00.664Z,11.90
2023-03-19T00:05:27.280Z,12.30
2023-03-19T00:07:53.937Z,12.73
2023-03-19T00:10:20.581Z,12.27
2023-03-19T00:12:47.418Z,12.00
2023-03-19T00:15:15.292Z,12.30
2023-03-19T00:17:43.079Z,12.37
2023-03-19T00:20:11.857Z,12.07
2023-03-19T00:22:39.909Z,12.43
2023-03-19T00:25:08.309Z,12.87
2023-03-19T00:27:35.315Z,12.27
2023-03-19T00:30:02.896Z,12.53
2023-03-19T00:32:30.038Z,11.83
2023-03-19T00:34:56.678Z,12.33
2023-03-19T00:37:23.403Z,12.50
2023-03-19T00:39:50.257Z,11.43
2023-03-19T00:42:16.751Z,12.07
2023-03-19T00:44:43.288Z,11.47
2023-03-19T00:47:09.896Z,12.50
2023-03-19T00:49:36.853Z,12.67
2023-03-19T00:52:04.253Z,12.80
2023-03-19T00:54:32.393Z,12.07
2023-03-19T00:56:59.350Z,12.23
2023-03-19T00:59:26.291Z,12.70
2023-03-19T01:01:52.858Z,12.40
2023-03-19T01:04:20.359Z,11.77
2023-03-19T01:06:46.808Z,12.67
2023-03-19T01:09:13.308Z,12.50
2023-03-19T01:11:39.835Z,13.70
2023-03-19T01:14:06.543Z,13.00
2023-03-19T01:16:34.801Z,11.50
2023-03-19T01:19:02.245Z,11.83
2023-03-19T01:21:31.098Z,11.90
2023-03-19T01:23:58.347Z,13.67
2023-03-19T01:26:25.065Z,12.57
2023-03-19T01:28:51.531Z,12.83
2023-03-19T01:31:18.112Z,12.33
2023-03-19T01:33:44.645Z,14.13
2023-03-19T01:36:11.216Z,13.40
2023-03-19T01:38:38.005Z,12.87
2023-03-19T01:41:04.884Z,10.87
2023-03-19T01:43:32.726Z,12.50
2023-03-19T01:46:02.969Z,12.93
2023-03-19T01:48:36.773Z,13.47
2023-03-19T01:51:04.346Z,13.50
2023-03-19T01:53:33.183Z,13.83
2023-03-19T01:56:04.256Z,13.03
2023-03-19T01:58:31.015Z,13.40
2023-03-19T02:00:58.161Z,13.27
2023-03-19T02:03:25.331Z,13.07
2023-03-19T02:05:52.836Z,12.77
2023-03-19T02:08:22.854Z,13.63
2023-03-19T02:10:50.460Z,13.33
2023-03-19T02:13:17.039Z,14.13
2023-03-19T02:15:43.690Z,13.40
2023-03-19T02:18:10.635Z,13.77
2023-03-19T02:20:54.801Z,13.23
2023-03-19T02:23:32.711Z,14.10
2023-03-19T02:26:09.125Z,13.37
2023-03-19T02:28:39.252Z,13.43
2023-03-19T02:31:07.530Z,14.50
2023-03-19T02:33:34.485Z,12.53
2023-03-19T02:36:03.920Z,13.00
2023-03-19T02:38:33.536Z,13.20
2023-03-19T02:41:02.936Z,14.40
2023-03-19T02:43:31.712Z,13.07
2023-03-19T02:45:58.864Z,13.30
2023-03-19T02:48:25.542Z,13.60
2023-03-19T02:50:52.599Z,13.80
2023-03-19T02:53:19.302Z,12.70
2023-03-19T02:55:46.142Z,13.60
2023-03-19T02:58:12.789Z,12.93
2023-03-19T03:00:39.375Z,12.80
2023-03-19T03:03:07.596Z,13.33
2023-03-19T03:05:34.932Z,13.30
2023-03-19T03:08:01.792Z,12.97
2023-03-19T03:10:28.589Z,13.00
2023-03-19T03:12:55.183Z,13.67
2023-03-19T03:15:21.736Z,13.53
2023-03-19T03:17:48.466Z,13.60
2023-03-19T03:20:17.639Z,12.53
2023-03-19T03:22:44.629Z,13.10
2023-03-19T03:25:11.314Z,13.17
2023-03-19T03:27:38.161Z,13.77
2023-03-19T03:30:08.354Z,13.40
2023-03-19T03:32:36.880Z,13.60
2023-03-19T03:35:05.293Z,13.83
2023-03-19T03:37:31.839Z,12.70
2023-03-19T03:39:58.342Z,13.43
2023-03-19T03:42:24.804Z,12.97
2023-03-19T03:44:51.351Z,12.67
2023-03-19T03:47:17.990Z,14.23
2023-03-19T03:49:45.659Z,12.43
2023-03-19T03:52:12.384Z,14.00
2023-03-19T03:54:39.116Z,13.60
2023-03-19T03:57:06.094Z,13.23
2023-03-19T03:59:32.583Z,12.77
2023-03-19T04:01:59.147Z,13.03
2023-03-19T04:04:26.486Z,11.77
2023-03-19T04:06:52.981Z,12.87
2023-03-19T04:09:19.559Z,12.03
2023-03-19T04:11:46.760Z,12.43
2023-03-19T04:14:13.244Z,12.67
2023-03-19T04:16:39.994Z,12.37
2023-03-19T04:19:07.731Z,12.50
2023-03-19T04:21:35.187Z,12.63
2023-03-19T04:24:02.816Z,13.53
2023-03-19T04:26:29.427Z,13.40
2023-03-19T04:28:56.056Z,12.83
2023-03-19T04:31:22.828Z,13.30
2023-03-19T04:33:49.544Z,12.17
2023-03-19T04:36:17.922Z,11.90
2023-03-19T04:38:44.548Z,12.63
2023-03-19T04:41:11.016Z,11.90
2023-03-19T04:43:37.512Z,12.80
2023-03-19T04:46:04.420Z,13.00
2023-03-19T04:48:32.144Z,12.90
2023-03-19T04:50:58.706Z,13.10
2023-03-19T04:53:25.528Z,12.10
2023-03-19T04:55:52.117Z,12.93
2023-03-19T04:58:18.914Z,12.70
2023-03-19T05:00:47.478Z,12.07
2023-03-19T05:03:15.214Z,12.27
2023-03-19T05:05:42.180Z,12.80
2023-03-19T05:08:09.470Z,11.83
2023-03-19T05:10:37.428Z,13.17
2023-03-19T05:13:05.261Z,12.60
2023-03-19T05:15:32.092Z,13.00
2023-03-19T05:17:58.998Z,13.83
2023-03-19T05:20:25.633Z,13.10
2023-03-19T05:22:53.292Z,12.67
2023-03-19T05:25:19.871Z,12.67
2023-03-19T05:27:46.646Z,13.43
2023-03-19T05:30:13.316Z,13.73
2023-03-19T05:32:40.701Z,12.87
2023-03-19T05:35:07.838Z,13.83
2023-03-19T05:37:34.388Z,12.90
2023-03-19T05:40:00.915Z,13.10
2023-03-19T05:42:27.417Z,13.23
2023-03-19T05:44:54.216Z,12.60
2023-03-19T05:47:21.422Z,12.13
2023-03-19T05:49:47.987Z,13.10
2023-03-19T05:52:14.769Z,13.47
2023-03-19T05:54:41.630Z,12.27
2023-03-19T05:57:08.481Z,13.50
2023-03-19T05:59:35.899Z,11.80
2023-03-19T06:02:02.968Z,13.00
2023-03-19T06:04:29.450Z,12.63
2023-03-19T06:06:56.144Z,11.97
2023-03-19T06:09:22.687Z,12.40
2023-03-19T06:11:49.208Z,13.10
2023-03-19T06:14:16.105Z,13.57
2023-03-19T06:16:42.799Z,13.77
2023-03-19T06:19:09.471Z,12.67
2023-03-19T06:21:36.521Z,12.57
2023-03-19T06:24:04.110Z,13.10
2023-03-19T06:26:30.687Z,13.30
2023-03-19T06:28:57.429Z,13.17
2023-03-19T06:31:24.115Z,13.63
2023-03-19T06:33:50.912Z,12.73
2023-03-19T06:36:17.778Z,13.03
2023-03-19T06:38:44.365Z,14.33
2023-03-19T06:41:10.987Z,13.23
2023-03-19T06:43:37.669Z,13.60
2023-03-19T06:46:05.173Z,12.80
2023-03-19T06:48:32.130Z,12.43
2023-03-19T06:50:58.803Z,12.10
2023-03-19T06:53:25.465Z,13.07
2023-03-19T06:55:52.083Z,13.70
2023-03-19T06:58:18.659Z,13.03
2023-03-19T07:00:45.278Z,13.10
2023-03-19T07:03:12.278Z,13.47
2023-03-19T07:05:38.870Z,13.10
2023-03-19T07:08:11.694Z,13.70
2023-03-19T07:10:39.383Z,13.10
2023-03-19T07:13:06.478Z,13.03
2023-03-19T07:15:33.522Z,14.13
2023-03-19T07:18:00.312Z,12.90
2023-03-19T07:20:26.981Z,13.00
2023-03-19T07:22:54.135Z,12.90
2023-03-19T07:25:20.878Z,12.97
2023-03-19T07:27:47.601Z,12.70
2023-03-19T07:30:14.679Z,14.23
2023-03-19T07:32:41.323Z,14.00
2023-03-19T07:35:08.550Z,14.40
2023-03-19T07:37:35.082Z,13.13
2023-03-19T07:40:01.759Z,13.47
2023-03-19T07:42:28.328Z,13.50
2023-03-19T07:44:54.878Z,13.30
2023-03-19T07:47:28.842Z,14.23
2023-03-19T07:49:56.744Z,13.33
2023-03-19T07:52:24.023Z,13.90
2023-03-19T07:54:50.851Z,13.90
2023-03-19T07:57:17.482Z,13.67
2023-03-19T07:59:43.976Z,13.43
2023-03-19T08:02:12.229Z,13.67
2023-03-19T08:04:39.550Z,12.77
2023-03-19T08:07:06.964Z,13.37
2023-03-19T08:09:34.193Z,13.20
2023-03-19T08:12:00.889Z,14.13
2023-03-19T08:14:27.554Z,14.37
2023-03-19T08:16:54.186Z,14.27
2023-03-19T08:19:20.910Z,13.73
2023-03-19T08:21:47.565Z,13.30
2023-03-19T08:24:14.363Z,13.57
2023-03-19T08:26:41.189Z,14.37
2023-03-19T08:29:09.029Z,13.33
2023-03-19T08:31:35.681Z,13.03
2023-03-19T08:34:06.152Z,13.20
2023-03-19T08:36:32.744Z,14.20
2023-03-19T08:38:59.520Z,13.03
2023-03-19T08:41:26.140Z,12.47
2023-03-19T08:43:52.830Z,12.23
2023-03-19T08:46:19.604Z,11.90
2023-03-19T08:48:46.422Z,12.30
2023-03-19T08:51:13.089Z,10.93
2023-03-19T08:53:40.152Z,11.30
2023-03-19T08:56:10.454Z,10.80
2023-03-19T08:58:37.027Z,11.20
2023-03-19T09:01:08.840Z,12.17
2023-03-19T09:03:36.057Z,10.47
2023-03-19T09:06:04.543Z,10.30
2023-03-19T10:08:53.603Z,9.30
2023-03-19T10:11:50.370Z,9.47
2023-03-19T10:14:38.913Z,8.97
2023-03-19T10:17:07.362Z,8.60
2023-03-19T10:19:48.337Z,9.33
2023-03-19T10:22:37.232Z,9.20
2023-03-19T10:25:06.451Z,9.47
2023-03-19T10:27:33.056Z,9.33
2023-03-19T10:29:59.814Z,9.03
2023-03-19T10:32:39.716Z,10.13
2023-03-19T10:35:20.739Z,9.00
2023-03-19T10:37:49.012Z,9.53
2023-03-19T10:40:23.586Z,9.30
2023-03-19T10:43:01.897Z,9.47
2023-03-19T10:45:39.112Z,9.47
2023-03-19T10:48:06.269Z,9.30
2023-03-19T10:50:38.607Z,8.57
2023-03-19T10:53:29.500Z,8.63
2023-03-19T10:56:19.453Z,8.87
2023-03-19T10:58:59.159Z,8.90
2023-03-19T11:01:39.516Z,8.73
2023-03-19T11:04:17.684Z,9.00
2023-03-19T11:06:50.306Z,8.70
2023-03-19T11:09:24.393Z,9.27
2023-03-19T11:11:59.565Z,8.77
2023-03-19T11:14:31.982Z,9.80
2023-03-19T11:17:20.475Z,8.27
2023-03-19T11:19:55.018Z,8.57
2023-03-19T11:22:32.198Z,8.77
2023-03-19T11:25:23.692Z,8.83
2023-03-19T11:28:04.627Z,9.03
2023-03-19T11:30:40.740Z,8.67
2023-03-19T11:33:33.754Z,8.33
2023-03-19T11:36:29.137Z,8.37
2023-03-19T11:39:17.783Z,8.53
2023-03-19T11:41:53.208Z,9.03
2023-03-19T11:44:35.038Z,9.23
2023-03-19T11:47:26.472Z,8.43
2023-03-19T11:49:59.700Z,9.10
2023-03-19T11:52:35.462Z,9.10
2023-03-19T11:55:21.346Z,7.87
2023-03-19T11:57:57.732Z,8.90
2023-03-19T12:00:50.864Z,9.17
2023-03-19T12:03:28.968Z,8.60
2023-03-19T12:06:16.571Z,8.90
2023-03-19T12:08:47.716Z,8.00
2023-03-19T12:11:32.515Z,8.30
2023-03-19T12:14:04.415Z,7.77
2023-03-19T12:16:55.887Z,7.13
2023-03-19T12:19:41.485Z,9.40
2023-03-19T12:22:31.507Z,9.63
2023-03-19T12:25:17.148Z,9.77
2023-03-19T12:27:55.508Z,8.27
2023-03-19T12:30:22.100Z,7.97
2023-03-19T12:33:19.726Z,8.60
2023-03-19T12:35:50.005Z,7.73
2023-03-19T12:38:19.564Z,7.10
2023-03-19T12:40:52.666Z,7.37
2023-03-19T12:43:44.084Z,7.37
2023-03-19T12:46:16.595Z,7.33
2023-03-19T12:48:55.793Z,7.23
2023-03-19T12:51:26.590Z,7.30
2023-03-19T12:54:04.585Z,6.53
2023-03-19T12:56:40.290Z,7.40
2023-03-19T12:59:31.908Z,7.30
2023-03-19T13:02:23.767Z,7.47
2023-03-19T13:04:57.396Z,6.70
2023-03-19T13:07:32.215Z,7.53
2023-03-19T13:10:04.625Z,7.20
2023-03-19T13:12:33.954Z,7.30
2023-03-19T13:15:10.113Z,6.77
2023-03-19T13:17:42.680Z,7.10
2023-03-19T13:20:27.210Z,7.13
2023-03-19T13:22:57.530Z,7.20
2023-03-19T13:25:29.215Z,7.03
2023-03-19T13:27:56.002Z,7.23
2023-03-19T13:30:23.876Z,7.13
2023-03-19T13:32:54.285Z,7.43
2023-03-19T13:35:28.585Z,6.13
2023-03-19T13:38:00.232Z,6.10
2023-03-19T13:40:39.107Z,6.60
2023-03-19T13:43:28.065Z,7.00
2023-03-19T13:46:04.255Z,6.53
2023-03-19T13:48:37.577Z,6.50
2023-03-19T13:51:12.796Z,7.00
2023-03-19T13:54:04.268Z,6.97
2023-03-19T13:56:33.173Z,7.20
2023-03-19T13:59:15.061Z,6.37
2023-03-19T14:01:44.941Z,7.57
2023-03-19T14:04:20.602Z,6.80
2023-03-19T14:06:53.658Z,7.27
2023-03-19T14:09:38.205Z,7.17
2023-03-19T14:12:20.443Z,6.53
2023-03-19T14:14:50.415Z,7.40
2023-03-19T14:17:20.556Z,7.70
2023-03-19T14:19:47.164Z,6.87
2023-03-19T14:22:16.378Z,7.10
2023-03-19T14:24:57.094Z,7.27
2023-03-19T14:27:30.484Z,8.47
2023-03-19T14:30:00.810Z,7.30
2023-03-19T14:32:33.393Z,7.53
2023-03-19T14:35:00.977Z,6.67
2023-03-19T14:37:34.621Z,6.87
2023-03-19T14:40:16.870Z,7.07
2023-03-19T14:43:21.912Z,6.83
2023-03-19T14:45:55.575Z,6.73
2023-03-19T14:48:59.491Z,6.33
2023-03-19T14:51:53.599Z,6.53
2023-03-19T14:54:30.324Z,6.70
2023-03-19T14:56:57.744Z,7.40
2023-03-19T14:59:24.452Z,7.00
2023-03-19T15:01:53.031Z,7.30
2023-03-19T15:04:22.620Z,7.17
2023-03-19T15:06:55.230Z,7.03
2023-03-19T15:09:29.878Z,6.77
2023-03-19T15:12:20.637Z,7.13
2023-03-19T15:15:10.093Z,7.40
2023-03-19T15:17:39.632Z,6.90
2023-03-19T15:20:24.173Z,6.67
2023-03-19T15:22:54.702Z,6.63
2023-03-19T15:25:21.642Z,6.73
2023-03-19T15:28:05.748Z,6.67
2023-03-19T15:30:32.916Z,6.83
2023-03-19T15:33:13.927Z,7.43
2023-03-19T15:35:44.178Z,7.13
2023-03-19T15:38:13.536Z,6.70
2023-03-19T15:40:41.496Z,7.30
2023-03-19T15:43:11.489Z,7.10
2023-03-19T15:45:38.527Z,7.07
2023-03-19T15:48:32.871Z,6.53
2023-03-19T15:51:02.775Z,7.53
2023-03-19T15:53:31.770Z,7.70
2023-03-19T15:56:01.211Z,7.97
2023-03-19T15:58:30.822Z,8.20
2023-03-19T16:00:59.480Z,7.63
2023-03-19T16:03:33.041Z,8.60
2023-03-19T16:06:27.052Z,8.63
2023-03-19T16:08:55.457Z,7.77
2023-03-19T16:11:34.294Z,7.30
2023-03-19T16:14:21.418Z,7.53
2023-03-19T16:16:48.852Z,8.13
2023-03-19T16:19:39.294Z,7.90
2023-03-19T16:22:17.386Z,7.67
2023-03-19T16:24:46.414Z,7.70
2023-03-19T16:27:18.285Z,9.60
2023-03-19T16:29:46.949Z,9.10
2023-03-19T16:32:23.603Z,11.03
2023-03-19T16:35:15.885Z,12.33
2023-03-19T16:37:47.771Z,12.00
2023-03-19T16:40:15.521Z,13.13
2023-03-19T16:42:45.755Z,14.23
2023-03-19T16:45:15.334Z,13.90
2023-03-19T16:47:49.922Z,16.37
2023-03-19T16:50:18.082Z,16.10
2023-03-19T16:52:45.746Z,21.00
2023-03-19T16:55:28.306Z,44.93
2023-03-19T16:58:20.275Z,48.83
2023-03-19T17:00:47.399Z,42.83
2023-03-19T17:03:16.283Z,39.07
2023-03-19T17:05:44.085Z,29.03
2023-03-19T17:08:11.654Z,26.53
2023-03-19T17:10:42.190Z,28.50
2023-03-19T17:13:23.444Z,28.30
2023-03-19T17:15:50.808Z,27.10
2023-03-19T17:18:21.191Z,28.20
2023-03-19T17:20:52.850Z,23.33
2023-03-19T17:23:19.712Z,25.83
2023-03-19T17:25:46.398Z,26.10
2023-03-19T17:28:12.859Z,23.93
2023-03-19T17:30:39.575Z,19.20
2023-03-19T17:33:06.203Z,18.07
2023-03-19T17:35:34.221Z,19.27
2023-03-19T17:38:01.206Z,19.03
2023-03-19T17:40:28.010Z,15.57
2023-03-19T17:42:55.752Z,16.70
2023-03-19T17:45:27.770Z,17.13
2023-03-19T17:47:56.568Z,19.60
2023-03-19T17:50:28.322Z,20.17
2023-03-19T17:52:55.086Z,21.60
2023-03-19T17:55:24.637Z,21.33
2023-03-19T17:57:51.603Z,19.10
2023-03-19T18:00:20.333Z,19.30
2023-03-19T18:02:48.206Z,18.23
2023-03-19T18:05:16.660Z,22.67
2023-03-19T18:07:44.943Z,19.93
2023-03-19T18:10:26.717Z,19.37
2023-03-19T18:12:54.595Z,162.90
2023-03-19T18:15:21.828Z,70.87
2023-03-19T18:17:54.489Z,43.67
2023-03-19T18:20:23.117Z,26.40
2023-03-19T18:22:50.067Z,22.57
2023-03-19T18:25:20.225Z,20.97
2023-03-19T18:27:51.457Z,20.47
2023-03-19T18:30:20.646Z,19.73
2023-03-19T18:32:54.287Z,21.83
2023-03-19T18:35:23.240Z,23.97
2023-03-19T18:37:51.203Z,24.00
2023-03-19T18:40:25.672Z,25.00
2023-03-19T18:42:52.708Z,27.17
2023-03-19T18:45:19.751Z,25.03
2023-03-19T18:47:48.192Z,29.87
2023-03-19T18:50:26.288Z,33.57
2023-03-19T18:52:53.706Z,30.33
2023-03-19T18:55:20.980Z,27.57
2023-03-19T18:57:59.618Z,29.30
2023-03-19T19:00:37.730Z,29.07
2023-03-19T19:03:05.427Z,27.67
2023-03-19T19:05:32.948Z,24.67
2023-03-19T19:08:04.449Z,18.17
2023-03-19T19:10:42.368Z,20.30
2023-03-19T19:13:15.993Z,21.97
2023-03-19T19:15:42.499Z,20.23
2023-03-19T19:18:20.650Z,19.47
2023-03-19T19:20:49.337Z,19.67
2023-03-19T19:23:16.361Z,21.63
2023-03-19T19:25:45.433Z,20.83
2023-03-19T19:28:19.248Z,20.57
2023-03-19T19:30:46.241Z,18.83
2023-03-19T19:33:17.851Z,19.27
2023-03-19T19:35:44.964Z,18.40
2023-03-19T19:38:12.964Z,17.80
2023-03-19T19:40:43.615Z,19.43
2023-03-19T19:43:19.479Z,19.43
2023-03-19T19:45:48.058Z,19.53
2023-03-19T19:48:17.444Z,18.33
2023-03-19T19:50:45.132Z,17.60
2023-03-19T19:53:12.341Z,17.03
2023-03-19T19:55:39.172Z,18.20
2023-03-19T19:58:08.528Z,31.83
2023-03-19T20:00:35.252Z,23.23
2023-03-19T20:03:01.815Z,21.23
2023-03-19T20:05:31.303Z,17.47
2023-03-19T20:08:00.686Z,17.10
2023-03-19T20:10:29.658Z,15.33
2023-03-19T20:12:58.857Z,15.07
2023-03-19T20:15:36.833Z,15.67
2023-03-19T20:18:05.283Z,13.87
2023-03-19T20:20:33.076Z,15.90
2023-03-19T20:23:02.315Z,13.43
2023-03-19T20:25:32.464Z,14.50
2023-03-19T20:28:00.585Z,14.37
2023-03-19T20:30:28.943Z,14.23
2023-03-19T20:32:56.573Z,14.43
2023-03-19T20:35:28.501Z,15.37
2023-03-19T20:37:56.602Z,15.17
2023-03-19T20:40:26.398Z,15.50
2023-03-19T20:42:52.948Z,15.70
2023-03-19T20:45:21.912Z,15.93
2023-03-19T20:47:49.150Z,16.43
2023-03-19T20:50:26.371Z,16.00
2023-03-19T20:52:52.991Z,16.50
2023-03-19T20:55:21.832Z,16.90
2023-03-19T20:57:50.051Z,17.63
2023-03-19T21:00:28.326Z,17.87
2023-03-19T21:02:58.532Z,16.93
2023-03-19T21:05:30.483Z,18.27
2023-03-19T21:07:57.051Z,18.80
2023-03-19T21:10:39.485Z,18.60
2023-03-19T21:13:06.951Z,17.70
2023-03-19T21:15:33.959Z,18.60
2023-03-19T21:18:00.820Z,17.37
2023-03-19T21:20:28.971Z,17.47
2023-03-19T21:23:19.446Z,16.43
2023-03-19T21:25:46.435Z,16.47
2023-03-19T21:28:33.471Z,17.80
2023-03-19T21:31:00.532Z,18.27
2023-03-19T21:33:29.832Z,16.60
2023-03-19T21:35:57.442Z,17.60
2023-03-19T21:38:24.473Z,18.13
2023-03-19T21:40:52.819Z,18.17
2023-03-19T21:43:22.669Z,18.50
2023-03-19T21:45:52.576Z,17.67
2023-03-19T21:48:25.239Z,26.80
2023-03-19T21:50:52.142Z,20.53
2023-03-19T21:53:19.531Z,18.70
2023-03-19T21:55:46.296Z,18.60
2023-03-19T21:58:14.419Z,18.80
2023-03-19T22:00:41.654Z,19.60
2023-03-19T22:03:15.024Z,17.83
2023-03-19T22:05:41.755Z,20.37
2023-03-19T22:08:08.755Z,21.73
2023-03-19T22:10:35.531Z,19.97
2023-03-19T22:13:02.888Z,19.43
2023-03-19T22:15:37.670Z,19.47
2023-03-19T22:18:06.962Z,20.23
2023-03-19T22:20:33.680Z,20.47
2023-03-19T22:23:00.558Z,19.33
2023-03-19T22:25:31.732Z,18.27
2023-03-19T22:27:58.381Z,19.27
2023-03-19T22:30:36.285Z,20.17
2023-03-19T22:33:14.475Z,19.43
2023-03-19T22:35:41.657Z,19.33
2023-03-19T22:38:08.195Z,18.87
2023-03-19T22:40:34.972Z,19.27
2023-03-19T22:43:01.632Z,19.50
2023-03-19T22:45:31.136Z,19.13
2023-03-19T22:47:58.292Z,19.67
2023-03-19T22:50:27.781Z,19.57
2023-03-19T22:52:54.882Z,20.10
2023-03-19T22:55:21.570Z,20.43
2023-03-19T22:57:48.576Z,20.03
2023-03-19T23:00:21.092Z,20.63
2023-03-19T23:02:54.709Z,20.93
2023-03-19T23:05:25.896Z,21.07
2023-03-19T23:07:53.443Z,20.27
2023-03-19T23:10:21.395Z,21.23
2023-03-19T23:12:48.159Z,19.53
2023-03-19T23:15:14.820Z,19.83
2023-03-19T23:17:42.178Z,21.17
2023-03-19T23:20:17.814Z,21.33
2023-03-19T23:22:45.714Z,21.20
2023-03-19T23:25:18.127Z,21.80
2023-03-19T23:27:45.631Z,21.13
2023-03-19T23:30:32.070Z,21.23
2023-03-19T23:33:01.590Z,20.53
2023-03-19T23:35:30.507Z,20.53
2023-03-19T23:37:57.496Z,21.33
2023-03-19T23:40:31.280Z,21.50
2023-03-19T23:42:58.663Z,21.93
2023-03-19T23:45:25.024Z,21.00
2023-03-19T23:47:51.566Z,20.90
2023-03-19T23:50:18.323Z,21.67
2023-03-19T23:52:44.911Z,21.43
2023-03-19T23:55:11.643Z,21.37
2023-03-19T23:57:38.791Z,20.17
